Disclaimer

Please do not use the information listed here in-flight or in-navigation, as they are not provided to us by the airports but are provided by volunteers, so they might be outdated.

Search


Regions


Airport information page

Radio informations:
INFO - 129.0 MHz

Airport informations:
Latitude: 25° 54' 31.93" N
Longitude: 054° 32' 21.84" E
Elevation: 43 feet - 13 meters
Operating hours: From sunrise to sunset (SR-SS)
Operating agency: Civil government, landing fees and diplomatic clearance may be required
Timezone: UTC+3:30
Fuel: Unknown fuel type or whether there is any fuel.

Runway information:
12/30 - 8345 x 175 feet< - >2544 x 53 meters

Recent METARs:
OIBS 190400Z 10006KT 9999 FEW030 26/19 Q1015
OIBS 190500Z 30010KT CAVOK 28/19 Q1014
OIBS 190500Z 30010KT CAVOK 28/19 Q1014

Airport on the map: